Time;durP1;ratioP1;P1;durP2;ratioP2;P2;SDS_P1;SDS_P2;PMS_P1;PMS_P2;Temp;Humidity;BMP_temperature;BMP_pressure;BME280_temperature;BME280_humidity;BME280_pressure;Samples;Min_cycle;Max_cycle;Signal;HPM_P1;HPM_P2
2022/05/24 00:01:57;;;;;;;3.92;2.05;;;24.40;42.20;;;;;;8295799;28;20160;-41
2022/05/24 00:05:58;;;;;;;3.83;2.10;;;24.40;42.20;;;;;;8295487;28;20050;-41
2022/05/24 00:09:59;;;;;;;2.65;1.70;;;24.40;42.30;;;;;;8295219;28;20445;-41
2022/05/24 00:14:01;;;;;;;1.90;1.67;;;24.40;42.30;;;;;;8295418;28;20399;-41
2022/05/24 00:18:04;;;;;;;;;;;24.40;42.30;;;;;;8295061;28;20052;-41
2022/05/24 00:22:05;;;;;;;3.03;2.17;;;24.40;42.30;;;;;;8295250;28;19913;-41
2022/05/24 00:26:07;;;;;;;2.03;1.42;;;24.40;42.30;;;;;;8294924;28;20066;-41
2022/05/24 00:30:09;;;;;;;1.95;1.50;;;24.40;42.20;;;;;;8294491;28;20034;-41
2022/05/24 00:34:09;;;;;;;;;;;24.40;42.30;;;;;;8294865;28;20037;-41
2022/05/24 00:38:12;;;;;;;1.90;1.67;;;24.30;42.30;;;;;;8294514;28;19914;-41
2022/05/24 00:42:19;;;;;;;1.70;1.60;;;24.30;42.20;;;;;;8293909;28;20038;-41
2022/05/24 00:46:24;;;;;;;3.00;1.70;;;24.40;42.30;;;;;;8294290;28;20033;-40
2022/05/24 00:50:30;;;;;;;1.85;1.55;;;24.30;42.30;;;;;;8294368;28;20534;-41
2022/05/24 00:54:31;;;;;;;1.60;1.50;;;24.30;42.30;;;;;;8293423;28;20037;-41
2022/05/24 00:58:52;;;;;;;1.67;1.58;;;24.30;42.80;;;;;;8293868;28;20038;-41
2022/05/24 01:02:53;;;;;;;1.50;1.40;;;24.30;42.30;;;;;;8293542;28;20038;-41
2022/05/24 01:06:54;;;;;;;2.35;1.58;;;24.30;42.30;;;;;;8293203;28;20060;-41
2022/05/24 01:10:55;;;;;;;1.52;1.42;;;24.30;42.30;;;;;;8293725;28;20022;-41
2022/05/24 01:14:59;;;;;;;3.30;1.70;;;24.30;42.30;;;;;;8293699;28;20038;-41
2022/05/24 01:19:04;;;;;;;2.75;1.65;;;24.30;42.30;;;;;;8293186;28;20044;-41
2022/05/24 01:23:23;;;;;;;1.58;1.48;;;24.30;42.40;;;;;;8293259;28;20092;-41
2022/05/24 01:27:24;;;;;;;1.85;1.50;;;24.30;42.30;;;;;;8292474;28;20045;-41
2022/05/24 01:36:09;;;;;;;2.05;1.60;;;24.20;42.30;;;;;;8293054;28;20491;-41
2022/05/24 01:40:07;;;;;;;2.10;1.60;;;24.30;42.30;;;;;;8291783;28;20457;-41
2022/05/24 01:44:10;;;;;;;2.10;1.60;;;24.30;42.30;;;;;;8292228;28;20042;-41
2022/05/24 01:48:15;;;;;;;3.10;1.70;;;24.20;42.30;;;;;;8291490;28;20060;-41
2022/05/24 01:52:32;;;;;;;2.00;1.45;;;24.30;42.40;;;;;;8292446;28;20125;-41
2022/05/24 01:56:53;;;;;;;1.60;1.50;;;24.20;42.30;;;;;;8292042;28;20046;-41
2022/05/24 02:01:08;;;;;;;1.60;1.48;;;24.20;42.40;;;;;;8291809;28;20073;-41
2022/05/24 02:05:09;;;;;;;1.48;1.38;;;24.20;42.40;;;;;;8292305;28;20402;-41
2022/05/24 02:09:11;;;;;;;2.03;1.50;;;24.20;42.40;;;;;;8291171;28;20461;-42
2022/05/24 02:13:15;;;;;;;2.60;1.50;;;24.20;42.40;;;;;;8291311;28;20034;-41
2022/05/24 02:17:20;;;;;;;1.70;1.45;;;24.20;42.40;;;;;;8291901;28;20415;-41
2022/05/24 02:21:21;;;;;;;2.40;1.50;;;24.20;42.40;;;;;;8291199;28;20041;-41
2022/05/24 02:25:52;;;;;;;2.15;1.30;;;24.10;42.30;;;;;;8291636;28;20029;-41
2022/05/24 02:29:53;;;;;;;3.05;1.60;;;24.20;42.40;;;;;;8291392;28;20041;-41
2022/05/24 02:33:54;;;;;;;2.05;1.55;;;24.20;42.40;;;;;;8290805;28;20453;-41
2022/05/24 02:37:54;;;;;;;2.70;1.60;;;24.10;42.40;;;;;;8291060;28;20121;-41
2022/05/24 02:41:56;;;;;;;1.58;1.48;;;24.20;42.50;;;;;;8291122;28;20510;-41
2022/05/24 02:45:57;;;;;;;2.53;1.25;;;24.10;42.40;;;;;;8290906;28;20053;-41
2022/05/24 02:49:57;;;;;;;1.83;1.60;;;24.10;42.40;;;;;;8290997;28;20042;-41
2022/05/24 02:53:59;;;;;;;1.50;1.35;;;24.10;42.40;;;;;;8291172;28;20350;-41
2022/05/24 02:57:59;;;;;;;1.13;1.00;;;24.10;42.40;;;;;;8290501;28;20034;-41
2022/05/24 03:02:04;;;;;;;2.20;1.33;;;24.10;42.40;;;;;;8291145;28;20037;-42
2022/05/24 03:06:04;;;;;;;1.30;1.20;;;24.10;42.50;;;;;;8291065;28;20264;-42
2022/05/24 03:10:05;;;;;;;2.13;1.38;;;24.10;42.40;;;;;;8291222;28;20054;-41
2022/05/24 03:14:15;;;;;;;1.80;1.50;;;24.10;42.40;;;;;;8290860;28;20034;-42
2022/05/24 03:18:17;;;;;;;1.38;1.10;;;24.10;42.40;;;;;;8290302;28;20038;-42
2022/05/24 03:22:18;;;;;;;1.83;1.10;;;24.10;42.30;;;;;;8290558;28;20121;-42
2022/05/24 03:26:18;;;;;;;1.50;1.40;;;24.10;42.30;;;;;;8293372;28;20034;-42
2022/05/24 03:30:19;;;;;;;1.83;1.35;;;24.00;42.30;;;;;;8296355;28;22449;-41
2022/05/24 03:34:20;;;;;;;1.63;1.20;;;24.10;42.30;;;;;;8296774;28;20069;-42
2022/05/24 03:38:20;;;;;;;1.42;1.30;;;24.10;42.30;;;;;;8296731;28;20038;-42
2022/05/24 03:42:21;;;;;;;2.05;1.23;;;24.10;42.30;;;;;;8296388;28;20483;-41
2022/05/24 03:46:21;;;;;;;1.40;1.20;;;24.10;42.30;;;;;;8296209;28;20486;-42
2022/05/24 03:50:23;;;;;;;1.35;1.25;;;24.00;42.20;;;;;;8296603;28;20053;-41
2022/05/24 03:54:23;;;;;;;0.93;0.88;;;24.00;42.20;;;;;;8295749;28;20376;-42
2022/05/24 03:58:25;;;;;;;1.40;1.30;;;24.00;42.20;;;;;;8295955;28;20038;-42
2022/05/24 04:02:25;;;;;;;1.10;1.00;;;24.00;42.20;;;;;;8295342;28;20030;-42
2022/05/24 04:06:26;;;;;;;1.23;1.13;;;24.00;42.20;;;;;;8295365;28;20460;-42
2022/05/24 04:10:28;;;;;;;2.80;1.27;;;24.00;42.20;;;;;;8295510;28;20308;-42
2022/05/24 04:14:33;;;;;;;1.77;1.42;;;24.00;42.20;;;;;;8295243;28;20276;-42
2022/05/24 04:18:36;;;;;;;1.35;1.25;;;24.00;42.20;;;;;;8294749;28;20058;-42
2022/05/24 04:22:37;;;;;;;2.15;1.35;;;24.00;42.20;;;;;;8294954;28;20552;-42
2022/05/24 04:26:37;;;;;;;;;;;24.00;42.10;;;;;;8296042;28;20104;-42
2022/05/24 04:30:38;;;;;;;1.93;1.37;;;24.00;42.20;;;;;;8294367;28;20333;-41
2022/05/24 04:34:38;;;;;;;1.60;1.45;;;24.00;42.10;;;;;;8295216;28;20073;-41
2022/05/24 04:38:39;;;;;;;1.30;1.10;;;24.00;42.20;;;;;;8293922;28;20076;-41
2022/05/24 04:42:39;;;;;;;1.38;1.27;;;24.00;42.20;;;;;;8294250;28;20072;-41
2022/05/24 04:50:59;;;;;;;1.73;1.33;;;24.00;42.20;;;;;;8294357;28;20049;-42
2022/05/24 04:55:01;;;;;;;1.42;1.33;;;23.90;42.10;;;;;;8293690;28;20034;-42
2022/05/24 04:59:02;;;;;;;2.78;1.40;;;23.90;42.10;;;;;;8293547;28;20038;-41
2022/05/24 05:03:10;;;;;;;1.55;1.23;;;23.90;42.10;;;;;;8293749;28;20037;-41
2022/05/24 05:07:11;;;;;;;1.85;1.50;;;23.90;42.10;;;;;;8294340;28;20120;-41
2022/05/24 05:11:11;;;;;;;1.65;1.55;;;23.90;42.10;;;;;;8293824;28;20545;-41
2022/05/24 05:15:14;;;;;;;1.77;1.42;;;23.90;42.10;;;;;;8292967;28;20030;-41
2022/05/24 05:19:14;;;;;;;1.88;1.30;;;23.90;42.10;;;;;;8293372;28;20030;-41
2022/05/24 05:23:16;;;;;;;2.13;1.43;;;23.90;42.10;;;;;;8292895;28;20100;-41
2022/05/24 05:27:17;;;;;;;1.98;1.42;;;24.00;42.20;;;;;;8292670;28;20295;-41
2022/05/24 05:31:26;;;;;;;1.65;1.20;;;23.90;42.00;;;;;;8293257;28;20088;-41
2022/05/24 05:35:27;;;;;;;1.42;1.00;;;23.90;42.00;;;;;;8293482;28;20025;-41
2022/05/24 05:39:27;;;;;;;1.40;1.30;;;23.90;42.00;;;;;;8292381;28;20438;-41
2022/05/24 05:43:28;;;;;;;1.50;1.33;;;24.00;42.10;;;;;;8292487;28;20273;-43
2022/05/24 05:47:28;;;;;;;1.17;1.00;;;23.90;42.00;;;;;;8292179;28;20042;-42
2022/05/24 05:51:29;;;;;;;2.15;1.60;;;23.90;42.00;;;;;;8291585;28;20638;-40
2022/05/24 05:55:31;;;;;;;2.27;1.43;;;23.90;42.00;;;;;;8292546;28;20107;-41
2022/05/24 05:59:31;;;;;;;2.15;1.30;;;23.90;42.00;;;;;;8292158;28;20283;-41
2022/05/24 06:03:32;;;;;;;1.50;1.10;;;23.90;42.00;;;;;;8291509;28;20038;-42
2022/05/24 06:07:32;;;;;;;1.40;1.10;;;23.90;42.10;;;;;;8292092;28;20380;-42
2022/05/24 06:11:33;;;;;;;1.15;1.05;;;23.90;42.10;;;;;;8291947;28;20049;-42
2022/05/24 06:15:34;;;;;;;2.80;1.63;;;23.90;42.00;;;;;;8291087;28;20478;-42
2022/05/24 06:19:36;;;;;;;2.38;1.58;;;23.90;42.00;;;;;;8291385;28;20038;-42
2022/05/24 06:23:36;;;;;;;2.10;1.30;;;23.90;42.00;;;;;;8291301;28;20056;-42
2022/05/24 06:27:37;;;;;;;1.35;1.00;;;23.90;42.00;;;;;;8291288;28;20045;-41
2022/05/24 06:31:37;;;;;;;1.80;1.30;;;23.90;42.00;;;;;;8291377;28;20224;-41
2022/05/24 06:35:39;;;;;;;1.37;0.90;;;23.90;42.00;;;;;;8291118;28;20273;-40
2022/05/24 06:39:40;;;;;;;1.20;1.10;;;23.80;42.00;;;;;;8290658;28;20034;-41
2022/05/24 06:43:40;;;;;;;1.42;1.20;;;23.80;41.90;;;;;;8290980;28;20049;-41
2022/05/24 06:47:41;;;;;;;1.63;1.05;;;23.80;41.90;;;;;;8291039;28;20042;-41
2022/05/24 06:51:43;;;;;;;1.45;1.10;;;23.80;41.80;;;;;;8290364;28;20051;-41
2022/05/24 06:55:44;;;;;;;2.33;1.00;;;23.80;41.80;;;;;;8290906;28;20030;-41
2022/05/24 07:04:04;;;;;;;1.48;1.20;;;23.80;41.80;;;;;;8297136;28;19920;-41
2022/05/24 07:08:05;;;;;;;1.60;1.10;;;23.80;41.70;;;;;;8297182;28;20042;-40
2022/05/24 07:12:06;;;;;;;2.15;1.08;;;23.80;41.70;;;;;;8296805;28;20041;-41
2022/05/24 07:16:08;;;;;;;1.95;1.02;;;23.80;41.70;;;;;;8296477;28;20042;-40
2022/05/24 07:20:09;;;;;;;1.10;1.00;;;23.80;41.70;;;;;;8297080;28;20125;-41
2022/05/24 07:24:10;;;;;;;0.88;0.88;;;23.80;41.70;;;;;;8296024;28;20038;-40
2022/05/24 07:28:13;;;;;;;0.93;0.90;;;23.80;41.70;;;;;;8296821;28;20073;-41
2022/05/24 07:32:14;;;;;;;1.00;1.00;;;23.80;41.70;;;;;;8296736;28;20041;-40
2022/05/24 07:36:14;;;;;;;1.70;1.10;;;23.80;41.60;;;;;;8296090;28;20037;-41
2022/05/24 07:48:54;;;;;;;4.18;0.90;;;23.80;41.60;;;;;;8295149;28;20553;-40
2022/05/24 07:52:54;;;;;;;1.30;1.20;;;23.80;41.60;;;;;;8295885;28;20038;-41
2022/05/24 07:56:55;;;;;;;1.05;0.90;;;23.80;41.60;;;;;;8296193;28;20537;-40
2022/05/24 08:00:57;;;;;;;1.00;0.90;;;23.80;41.50;;;;;;8295090;28;20038;-41
2022/05/24 08:04:58;;;;;;;1.00;0.90;;;23.80;41.50;;;;;;8295520;28;20498;-41
2022/05/24 08:08:58;;;;;;;0.77;0.77;;;23.80;41.50;;;;;;8295212;28;20119;-42
2022/05/24 08:13:02;;;;;;;1.38;0.80;;;23.80;41.50;;;;;;8293966;28;20367;-41
2022/05/24 08:17:03;;;;;;;1.63;1.10;;;23.80;41.50;;;;;;8295003;28;20046;-41
2022/05/24 08:21:04;;;;;;;0.70;0.70;;;23.80;41.40;;;;;;8294246;28;20100;-41
2022/05/24 08:25:09;;;;;;;0.90;0.90;;;23.80;41.40;;;;;;8294727;28;20072;-41
2022/05/24 08:29:10;;;;;;;0.80;0.80;;;23.80;41.40;;;;;;8294511;28;20088;-41
2022/05/24 08:33:14;;;;;;;0.70;0.70;;;23.80;41.40;;;;;;8294484;28;20487;-41
2022/05/24 08:37:14;;;;;;;0.90;0.80;;;23.80;41.40;;;;;;8294471;28;20450;-41
2022/05/24 08:41:25;;;;;;;1.60;1.00;;;23.80;41.40;;;;;;8294314;28;20038;-41
2022/05/24 08:49:50;;;;;;;0.95;0.90;;;23.80;41.30;;;;;;8294356;28;20463;-39
2022/05/24 08:53:56;;;;;;;1.35;0.88;;;23.80;41.30;;;;;;8294104;28;20042;-40
2022/05/24 08:57:59;;;;;;;2.60;0.73;;;23.80;41.30;;;;;;8293384;28;20495;-40
2022/05/24 09:02:00;;;;;;;0.73;0.70;;;23.80;41.20;;;;;;8293713;28;20457;-40
2022/05/24 09:06:26;;;;;;;1.10;0.90;;;23.80;41.20;;;;;;8293304;28;20075;-41
2022/05/24 09:10:53;;;;;;;1.88;0.70;;;23.80;41.20;;;;;;8292614;28;20052;-40
2022/05/24 09:15:04;;;;;;;2.70;0.80;;;23.80;41.20;;;;;;8293407;28;20038;-40
2022/05/24 09:19:16;;;;;;;;;;;23.80;41.10;;;;;;8293919;28;20495;-40
2022/05/24 09:23:44;;;;;;;1.20;1.00;;;23.80;41.10;;;;;;8293301;28;19976;-40
2022/05/24 09:27:53;;;;;;;1.02;0.70;;;23.80;41.10;;;;;;8286588;28;20543;-40
2022/05/24 09:31:56;;;;;;;0.63;0.60;;;23.80;41.00;;;;;;8293010;28;20044;-40
2022/05/24 09:36:00;;;;;;;0.75;0.75;;;23.80;41.00;;;;;;8292960;28;20036;-40
2022/05/24 09:40:06;;;;;;;0.88;0.80;;;23.80;41.00;;;;;;8292312;28;20117;-41
2022/05/24 09:44:14;;;;;;;0.98;0.60;;;23.90;41.00;;;;;;8292617;28;20129;-41
2022/05/24 09:48:24;;;;;;;1.33;0.73;;;23.90;40.90;;;;;;8291973;28;20050;-41
2022/05/24 09:52:25;;;;;;;0.83;0.83;;;23.90;40.90;;;;;;8292571;28;20034;-41
2022/05/24 09:56:33;;;;;;;0.70;0.67;;;23.90;40.80;;;;;;8292166;28;20056;-39
2022/05/24 10:00:33;;;;;;;0.73;0.60;;;24.00;40.90;;;;;;8291603;28;20033;-41
2022/05/24 10:04:39;;;;;;;0.80;0.70;;;24.00;40.90;;;;;;8292164;28;20506;-42
2022/05/24 10:08:43;;;;;;;0.95;0.90;;;24.00;40.80;;;;;;8291930;28;20414;-42
2022/05/24 10:12:55;;;;;;;0.95;0.82;;;24.00;40.70;;;;;;8291360;28;20034;-39
2022/05/24 10:17:04;;;;;;;1.83;0.70;;;24.00;40.70;;;;;;8291331;28;20045;-40
2022/05/24 10:21:24;;;;;;;0.70;0.70;;;24.00;40.70;;;;;;8291206;28;20030;-40
2022/05/24 10:25:40;;;;;;;1.13;1.02;;;24.00;40.60;;;;;;8291509;28;20057;-40
2022/05/24 10:29:55;;;;;;;1.08;0.63;;;24.00;40.50;;;;;;8291787;28;20046;-40
2022/05/24 10:38:51;;;;;;;1.05;0.80;;;24.10;40.90;;;;;;8291295;28;20133;-41
2022/05/24 10:43:01;;;;;;;0.90;0.90;;;24.10;40.50;;;;;;8290415;28;20103;-41
2022/05/24 10:47:07;;;;;;;1.05;0.80;;;24.10;40.40;;;;;;8290948;28;20458;-41
2022/05/24 10:51:37;;;;;;;0.70;0.70;;;24.10;40.30;;;;;;8290420;28;20530;-40
2022/05/24 10:55:44;;;;;;;1.53;0.90;;;24.20;40.30;;;;;;8290867;28;20049;-41
2022/05/24 10:59:54;;;;;;;0.85;0.70;;;24.20;40.30;;;;;;8290810;28;20034;-41
2022/05/24 11:04:02;;;;;;;0.80;0.80;;;24.20;40.30;;;;;;8290590;28;20037;-41
2022/05/24 11:08:14;;;;;;;0.90;0.80;;;24.10;40.20;;;;;;8290605;28;20050;-40
2022/05/24 11:12:24;;;;;;;1.02;0.63;;;24.20;40.20;;;;;;8290602;28;20034;-40
2022/05/24 11:16:37;;;;;;;0.90;0.70;;;24.20;40.20;;;;;;8290469;28;20033;-40
2022/05/24 11:20:41;;;;;;;0.95;0.50;;;24.20;40.20;;;;;;8290607;28;20132;-40
2022/05/24 11:24:47;;;;;;;0.80;0.70;;;24.30;40.10;;;;;;8290152;28;20022;-40
2022/05/24 11:28:55;;;;;;;0.75;0.75;;;24.20;40.10;;;;;;8290106;28;20053;-40
2022/05/24 11:33:05;;;;;;;0.70;0.70;;;24.20;40.00;;;;;;8290603;28;20041;-40
2022/05/24 11:37:14;;;;;;;1.02;0.65;;;24.20;40.10;;;;;;8290165;28;20041;-40
2022/05/24 11:41:28;;;;;;;1.42;0.68;;;24.20;40.00;;;;;;8290249;28;20061;-40
2022/05/24 11:45:28;;;;;;;0.85;0.68;;;24.20;40.00;;;;;;8289581;28;20045;-40
2022/05/24 11:49:29;;;;;;;0.73;0.50;;;24.30;40.00;;;;;;8295958;28;20053;-40
2022/05/24 11:53:35;;;;;;;1.17;0.90;;;24.30;40.00;;;;;;8296130;28;20148;-40
2022/05/24 11:57:41;;;;;;;0.73;0.70;;;24.30;40.00;;;;;;8295069;28;20029;-39
2022/05/24 12:01:45;;;;;;;1.08;0.57;;;24.30;40.00;;;;;;8278508;28;20048;-41
2022/05/24 12:10:21;;;;;;;1.98;0.68;;;24.30;39.90;;;;;;8294965;28;20120;-40
2022/05/24 12:14:24;;;;;;;0.93;0.70;;;24.30;39.90;;;;;;8295472;28;20038;-40
2022/05/24 12:18:39;;;;;;;2.05;0.80;;;24.30;39.90;;;;;;8294755;28;20041;-41
2022/05/24 12:23:04;;;;;;;0.93;0.80;;;24.30;39.90;;;;;;8294901;28;20567;-41
2022/05/24 12:27:20;;;;;;;0.80;0.70;;;24.30;39.90;;;;;;8291188;28;20029;-40
2022/05/24 12:31:21;;;;;;;0.70;0.65;;;24.30;39.90;;;;;;8269562;28;20050;-40
2022/05/24 12:35:22;;;;;;;;;;;24.30;39.90;;;;;;8295451;28;20165;-41
2022/05/24 12:39:23;;;;;;;1.17;0.70;;;24.30;39.90;;;;;;8293857;28;20282;-40
2022/05/24 12:43:24;;;;;;;;;;;24.30;39.90;;;;;;8294872;28;20034;-40
2022/05/24 12:47:24;;;;;;;0.77;0.70;;;24.40;39.90;;;;;;8294547;28;19928;-41
2022/05/24 12:51:25;;;;;;;0.90;0.80;;;24.30;39.80;;;;;;8293557;28;20053;-40
2022/05/24 12:59:57;;;;;;;0.82;0.70;;;24.30;39.80;;;;;;8293684;28;20048;-40
2022/05/24 13:04:19;;;;;;;0.95;0.80;;;24.30;39.90;;;;;;8292959;28;20601;-41
2022/05/24 13:08:21;;;;;;;0.90;0.80;;;24.30;39.80;;;;;;8293087;28;20333;-40
2022/05/24 13:12:22;;;;;;;2.05;0.85;;;24.30;39.80;;;;;;8292497;28;20034;-40
2022/05/24 13:16:22;;;;;;;0.98;0.90;;;24.40;39.80;;;;;;8292897;28;20029;-40
2022/05/24 13:20:25;;;;;;;1.17;0.85;;;24.40;39.80;;;;;;8292943;28;20038;-40
2022/05/24 13:24:26;;;;;;;0.90;0.88;;;24.40;39.90;;;;;;8292079;28;20088;-40
2022/05/24 13:28:40;;;;;;;0.90;0.82;;;24.40;39.80;;;;;;8292614;28;20041;-40
2022/05/24 13:37:06;;;;;;;0.70;0.70;;;24.40;39.70;;;;;;8292664;28;20069;-40
2022/05/24 13:41:09;;;;;;;1.27;0.95;;;24.40;39.70;;;;;;8292910;28;20038;-40
2022/05/24 13:45:22;;;;;;;0.90;0.90;;;24.40;39.80;;;;;;8291880;28;20042;-40
2022/05/24 13:49:39;;;;;;;1.30;0.82;;;24.40;39.80;;;;;;8291938;28;20108;-41
2022/05/24 13:53:40;;;;;;;0.80;0.80;;;24.40;39.70;;;;;;8292032;28;20535;-40
2022/05/24 13:57:56;;;;;;;1.70;0.90;;;24.40;39.80;;;;;;8291378;28;20034;-40
2022/05/24 14:02:10;;;;;;;0.80;0.80;;;24.40;39.80;;;;;;8291668;28;20038;-40
2022/05/24 14:06:13;;;;;;;1.05;1.00;;;24.40;39.80;;;;;;8291268;28;20062;-40
2022/05/24 14:10:13;;;;;;;0.63;0.63;;;24.50;39.70;;;;;;8290967;28;20149;-40
2022/05/24 14:14:14;;;;;;;1.10;1.00;;;24.50;39.70;;;;;;8291447;28;20034;-41
2022/05/24 14:18:16;;;;;;;2.40;0.77;;;24.50;39.70;;;;;;8290780;28;20794;-41
2022/05/24 14:22:16;;;;;;;0.82;0.77;;;24.50;39.70;;;;;;8291211;28;20041;-40
2022/05/24 14:26:17;;;;;;;0.90;0.75;;;24.50;39.70;;;;;;8290668;28;20494;-39
2022/05/24 14:30:17;;;;;;;1.77;1.00;;;24.50;39.70;;;;;;8261289;28;20076;-40
2022/05/24 14:34:20;;;;;;;2.05;0.90;;;24.50;39.70;;;;;;8282579;28;20040;-40
2022/05/24 14:38:20;;;;;;;1.63;0.90;;;24.50;39.70;;;;;;8290646;28;20057;-40
2022/05/24 14:42:21;;;;;;;0.90;0.80;;;24.50;39.70;;;;;;8290298;28;20033;-41
2022/05/24 14:46:23;;;;;;;;;;;24.50;39.70;;;;;;8290715;28;20045;-40
2022/05/24 14:50:23;;;;;;;0.77;0.77;;;24.50;39.70;;;;;;8277613;28;20371;-40
2022/05/24 14:54:26;;;;;;;1.67;0.98;;;24.50;39.80;;;;;;8282182;28;20089;-41
2022/05/24 14:58:26;;;;;;;0.82;0.60;;;24.50;39.80;;;;;;8290723;28;20593;-41
2022/05/24 15:02:27;;;;;;;1.40;0.90;;;24.50;39.80;;;;;;8290058;28;20054;-40
2022/05/24 15:06:28;;;;;;;0.95;0.90;;;24.50;39.80;;;;;;8290038;28;20022;-41
2022/05/24 15:19:08;;;;;;;1.45;1.00;;;24.50;39.80;;;;;;8289817;28;20049;-40
2022/05/24 15:23:21;;;;;;;1.63;0.70;;;24.50;39.90;;;;;;8295453;28;20388;-40
2022/05/24 15:27:22;;;;;;;0.75;0.75;;;24.50;39.80;;;;;;8296062;28;20042;-40
2022/05/24 15:31:24;;;;;;;0.80;0.80;;;24.50;39.80;;;;;;8297031;28;20398;-40
2022/05/24 15:35:25;;;;;;;0.98;0.88;;;24.50;39.80;;;;;;8296056;28;20037;-41
2022/05/24 15:39:25;;;;;;;0.87;0.83;;;24.50;39.80;;;;;;8295671;28;20054;-41
2022/05/24 15:43:26;;;;;;;1.03;0.80;;;24.50;39.80;;;;;;8296299;28;20301;-40
2022/05/24 15:47:27;;;;;;;1.40;1.05;;;24.50;39.90;;;;;;8296009;28;20706;-40
2022/05/24 15:51:28;;;;;;;0.88;0.68;;;24.50;39.90;;;;;;8295689;28;20053;-41
2022/05/24 15:55:29;;;;;;;2.05;1.02;;;24.50;39.90;;;;;;8295899;28;20052;-41
2022/05/24 15:59:30;;;;;;;1.30;1.00;;;24.50;39.90;;;;;;8295750;28;20034;-40
2022/05/24 16:03:32;;;;;;;1.63;1.02;;;24.50;40.00;;;;;;8294656;28;20366;-41
2022/05/24 16:11:55;;;;;;;0.88;0.80;;;24.50;40.00;;;;;;8295306;28;20190;-41
2022/05/24 16:15:58;;;;;;;0.85;0.82;;;24.40;40.00;;;;;;8294452;28;20498;-41
2022/05/24 16:19:59;;;;;;;0.80;0.80;;;24.40;40.00;;;;;;8295007;28;20058;-41
2022/05/24 16:24:00;;;;;;;0.70;0.70;;;24.40;40.00;;;;;;8295037;28;20042;-41
2022/05/24 16:28:01;;;;;;;1.15;0.90;;;24.40;40.10;;;;;;8294038;28;20495;-40
2022/05/24 16:32:02;;;;;;;;;;;24.40;40.00;;;;;;8294541;28;20549;-40
2022/05/24 16:36:03;;;;;;;1.03;0.93;;;24.40;40.00;;;;;;8294086;28;19913;-40
2022/05/24 16:40:07;;;;;;;0.82;0.82;;;24.40;40.00;;;;;;8294390;28;20049;-40
2022/05/24 16:44:07;;;;;;;2.88;1.10;;;24.40;40.10;;;;;;8294041;28;20070;-41
2022/05/24 16:48:11;;;;;;;1.65;0.80;;;24.40;40.00;;;;;;8293164;28;20096;-40
2022/05/24 16:52:12;;;;;;;2.13;0.88;;;24.40;40.10;;;;;;8285486;28;20053;-40
2022/05/24 17:00:32;;;;;;;1.15;1.00;;;24.30;40.10;;;;;;8293080;28;20545;-40
2022/05/24 17:04:33;;;;;;;1.92;1.15;;;24.30;40.20;;;;;;8293193;28;20030;-40
2022/05/24 17:08:34;;;;;;;1.13;1.00;;;24.30;40.20;;;;;;8293381;28;20060;-40
2022/05/24 17:12:35;;;;;;;0.88;0.88;;;24.30;40.20;;;;;;8292799;28;20034;-40
2022/05/24 17:16:35;;;;;;;2.78;1.00;;;24.30;40.20;;;;;;8292851;28;20037;-41
2022/05/24 17:20:36;;;;;;;0.98;0.88;;;24.30;40.20;;;;;;8292962;28;20048;-40
2022/05/24 17:24:37;;;;;;;;;;;24.30;40.30;;;;;;8292663;28;20069;-41
2022/05/24 17:28:38;;;;;;;0.80;0.80;;;24.30;40.30;;;;;;8293089;28;19961;-41
2022/05/24 17:32:44;;;;;;;0.80;0.80;;;24.20;40.30;;;;;;8292508;28;20124;-41
2022/05/24 17:36:45;;;;;;;0.93;0.90;;;24.30;40.30;;;;;;8292543;28;20470;-41
2022/05/24 17:40:50;;;;;;;1.17;1.00;;;24.20;40.30;;;;;;8292451;28;20084;-40
2022/05/24 17:44:52;;;;;;;1.80;1.00;;;24.20;40.30;;;;;;8291353;28;20499;-41
2022/05/24 17:48:52;;;;;;;1.38;0.88;;;24.20;40.30;;;;;;8291977;28;20046;-40
2022/05/24 17:52:53;;;;;;;1.40;0.90;;;24.20;40.40;;;;;;8292278;28;20467;-40
2022/05/24 17:56:54;;;;;;;0.80;0.73;;;24.20;40.40;;;;;;8291566;28;20080;-41
2022/05/24 18:00:56;;;;;;;1.27;0.80;;;24.20;40.30;;;;;;8291492;28;20276;-40
2022/05/24 18:04:56;;;;;;;1.17;0.80;;;24.20;40.40;;;;;;8291858;28;20518;-40
2022/05/24 18:08:57;;;;;;;1.57;0.83;;;24.20;40.40;;;;;;8291873;28;20049;-40
2022/05/24 18:12:58;;;;;;;0.63;0.63;;;24.20;40.40;;;;;;8290777;28;20269;-40
2022/05/24 18:16:59;;;;;;;2.03;0.70;;;24.20;40.40;;;;;;8291609;28;20038;-40
2022/05/24 18:21:01;;;;;;;1.02;0.80;;;24.20;40.40;;;;;;8291377;28;20041;-40
2022/05/24 18:25:14;;;;;;;0.70;0.70;;;24.10;40.40;;;;;;8291160;28;20499;-40
2022/05/24 18:38:37;;;;;;;0.82;0.70;;;24.10;40.40;;;;;;8276687;28;20068;-41
2022/05/24 18:42:39;;;;;;;0.70;0.70;;;24.10;40.40;;;;;;8273064;28;20033;-40
2022/05/24 18:46:40;;;;;;;1.15;0.80;;;24.10;40.40;;;;;;8291031;28;20069;-40
2022/05/24 18:50:40;;;;;;;0.95;0.80;;;24.10;40.50;;;;;;8290821;28;20042;-40
2022/05/24 18:54:41;;;;;;;1.25;0.95;;;24.10;40.50;;;;;;8273036;28;20116;-41
2022/05/24 18:58:41;;;;;;;0.85;0.82;;;24.10;40.50;;;;;;8297673;28;20057;-41
2022/05/24 19:02:42;;;;;;;0.77;0.77;;;24.10;40.50;;;;;;8297757;28;20038;-41
2022/05/24 19:07:16;;;;;;;0.80;0.80;;;24.00;40.50;;;;;;8296660;28;20044;-41
2022/05/24 19:11:10;;;;;;;1.05;0.70;;;24.00;40.50;;;;;;8297010;28;20292;-41
2022/05/24 19:15:10;;;;;;;1.10;1.00;;;24.00;40.50;;;;;;8296954;28;20030;-40
2022/05/24 19:19:12;;;;;;;1.35;0.70;;;24.00;40.50;;;;;;8297458;28;20288;-40
2022/05/24 19:23:13;;;;;;;0.70;0.70;;;24.00;40.60;;;;;;8297215;28;20040;-39
2022/05/24 19:27:16;;;;;;;0.63;0.63;;;24.00;40.50;;;;;;8296237;28;20060;-40
2022/05/24 19:31:17;;;;;;;1.00;0.90;;;24.00;40.50;;;;;;8296893;28;20483;-40
2022/05/24 19:35:17;;;;;;;1.00;0.80;;;24.00;40.50;;;;;;8296782;28;20045;-40
2022/05/24 19:43:37;;;;;;;1.30;0.98;;;24.00;40.50;;;;;;8296722;28;20041;-41
2022/05/24 19:47:38;;;;;;;1.37;0.93;;;24.00;40.50;;;;;;8296167;28;20049;-41
2022/05/24 19:51:43;;;;;;;1.65;1.35;;;24.00;40.50;;;;;;8295801;28;20203;-40
2022/05/24 19:55:44;;;;;;;0.70;0.70;;;24.00;40.60;;;;;;8296018;28;20049;-40
2022/05/24 19:59:45;;;;;;;1.13;0.90;;;24.00;40.60;;;;;;8295876;28;20034;-40
2022/05/24 20:03:45;;;;;;;0.80;0.80;;;24.00;40.60;;;;;;8295164;28;20053;-39
2022/05/24 20:07:48;;;;;;;0.60;0.60;;;23.90;40.50;;;;;;8294635;28;20121;-40
2022/05/24 20:11:49;;;;;;;0.73;0.73;;;23.90;40.50;;;;;;8295612;28;20041;-39
2022/05/24 20:16:02;;;;;;;1.10;0.80;;;23.90;40.60;;;;;;8294781;28;20030;-41
2022/05/24 20:20:04;;;;;;;0.70;0.60;;;23.90;40.60;;;;;;8295030;28;20045;-41
2022/05/24 20:24:05;;;;;;;1.13;0.77;;;23.90;40.60;;;;;;8294468;28;20117;-41
2022/05/24 20:28:06;;;;;;;1.23;0.65;;;23.90;40.60;;;;;;8294921;28;20062;-41
2022/05/24 20:32:07;;;;;;;0.60;0.50;;;23.80;40.60;;;;;;8295003;28;20042;-41
2022/05/24 20:36:08;;;;;;;0.65;0.63;;;23.80;40.60;;;;;;8294034;28;20277;-41
2022/05/24 20:40:09;;;;;;;1.23;0.70;;;23.90;40.60;;;;;;8294552;28;20056;-41
2022/05/24 20:44:10;;;;;;;1.30;0.73;;;23.90;40.60;;;;;;8294477;28;20491;-41
2022/05/24 20:48:11;;;;;;;0.60;0.60;;;23.90;40.70;;;;;;8293773;28;20081;-41
2022/05/24 20:52:12;;;;;;;1.10;1.00;;;23.80;40.60;;;;;;8294540;28;20068;-41
2022/05/24 20:56:12;;;;;;;1.25;0.68;;;23.80;40.60;;;;;;8294269;28;20626;-41
2022/05/24 21:00:15;;;;;;;0.77;0.77;;;23.80;40.60;;;;;;8293594;28;20029;-41
2022/05/24 21:04:16;;;;;;;0.77;0.70;;;23.80;40.60;;;;;;8293807;28;20116;-41
2022/05/24 21:08:17;;;;;;;1.10;1.00;;;23.80;40.60;;;;;;8293850;28;20045;-41
2022/05/24 21:12:20;;;;;;;1.35;0.80;;;23.80;40.60;;;;;;8293374;28;20522;-41
2022/05/24 21:16:21;;;;;;;0.70;0.70;;;23.80;40.70;;;;;;8293379;28;20041;-41
2022/05/24 21:20:21;;;;;;;1.70;0.80;;;23.80;40.60;;;;;;8293104;28;20060;-41
2022/05/24 21:24:22;;;;;;;0.88;0.63;;;23.80;40.70;;;;;;8292760;28;20029;-41
2022/05/24 21:28:36;;;;;;;2.03;0.70;;;23.80;40.70;;;;;;8293286;28;20037;-41
2022/05/24 21:32:54;;;;;;;1.65;0.90;;;23.80;40.70;;;;;;8292644;28;20458;-41
2022/05/24 21:36:55;;;;;;;0.80;0.80;;;23.80;40.70;;;;;;8292336;28;20062;-41
2022/05/24 21:40:56;;;;;;;0.90;0.80;;;23.80;40.70;;;;;;8293012;28;20342;-41
2022/05/24 21:44:57;;;;;;;0.70;0.70;;;23.70;40.70;;;;;;8292446;28;20407;-41
2022/05/24 21:48:58;;;;;;;0.93;0.70;;;23.70;40.70;;;;;;8292282;28;20053;-41
2022/05/24 21:52:58;;;;;;;1.00;0.90;;;23.70;40.70;;;;;;8292633;28;20057;-41
2022/05/24 21:57:00;;;;;;;1.02;0.77;;;23.70;40.70;;;;;;8291994;28;20039;-41
2022/05/24 22:01:02;;;;;;;0.63;0.63;;;23.70;40.80;;;;;;8291983;28;20049;-41
2022/05/24 22:05:03;;;;;;;0.98;0.85;;;23.70;40.70;;;;;;8292217;28;20063;-41
2022/05/24 22:09:04;;;;;;;0.70;0.63;;;23.70;40.70;;;;;;8291532;28;20046;-41
2022/05/24 22:13:05;;;;;;;0.88;0.82;;;23.70;40.80;;;;;;8291688;28;20033;-41
2022/05/24 22:17:11;;;;;;;;;;;23.70;40.80;;;;;;8292234;28;20049;-41
2022/05/24 22:21:12;;;;;;;1.02;0.80;;;23.70;40.80;;;;;;8291069;28;19918;-41
2022/05/24 22:25:13;;;;;;;3.03;0.80;;;23.70;40.80;;;;;;8291376;28;20474;-41
2022/05/24 22:29:14;;;;;;;0.82;0.82;;;23.70;40.80;;;;;;8291964;28;20458;-41